Time;durP1;ratioP1;P1;durP2;ratioP2;P2;SDS_P1;SDS_P2;PMS_P1;PMS_P2;Temp;Humidity;BMP_temperature;BMP_pressure;BME280_temperature;BME280_humidity;BME280_pressure;Samples;Min_cycle;Max_cycle;Signal;HPM_P1;HPM_P2
2023/11/27 00:02:03;;;;;;;19.05;12.50;;;;;;;5.61;100.00;100831.41;5033729;28;20252;-73
2023/11/27 00:04:29;;;;;;;16.95;12.35;;;;;;;5.55;100.00;100828.97;5015644;28;20092;-73
2023/11/27 00:06:54;;;;;;;16.40;12.15;;;;;;;5.55;100.00;100816.81;5019160;28;20029;-73
2023/11/27 00:09:21;;;;;;;21.85;11.88;;;;;;;5.53;100.00;100810.78;5037276;28;20029;-73
2023/11/27 00:11:46;;;;;;;16.80;12.20;;;;;;;5.55;100.00;100814.22;5036425;28;20345;-73
2023/11/27 00:14:12;;;;;;;16.92;11.57;;;;;;;5.60;100.00;100805.47;5036949;28;20105;-73
2023/11/27 00:16:37;;;;;;;20.85;12.45;;;;;;;5.55;100.00;100810.78;5036788;28;20041;-73
2023/11/27 00:19:03;;;;;;;17.58;11.95;;;;;;;5.53;100.00;100802.13;5047057;28;20358;-73
2023/11/27 00:21:28;;;;;;;15.07;10.90;;;;;;;5.55;100.00;100795.19;5057015;28;20033;-73
2023/11/27 00:23:53;;;;;;;17.52;11.15;;;;;;;5.52;100.00;100787.44;5057216;28;20387;-73
2023/11/27 00:26:19;;;;;;;23.13;11.73;;;;;;;5.49;100.00;100775.34;5057101;28;20032;-73
2023/11/27 00:28:44;;;;;;;21.15;11.30;;;;;;;5.47;100.00;100779.72;5057439;28;20224;-73
2023/11/27 00:31:09;;;;;;;17.98;11.10;;;;;;;5.50;100.00;100771.88;5057429;28;20360;-73
2023/11/27 00:33:36;;;;;;;17.25;11.18;;;;;;;5.44;100.00;100766.84;5056978;28;20044;-73
2023/11/27 00:36:03;;;;;;;18.27;10.73;;;;;;;5.37;100.00;100758.31;5057154;28;20115;-73
2023/11/27 00:38:28;;;;;;;19.52;11.20;;;;;;;5.38;100.00;100748.75;5056788;28;20312;-73
2023/11/27 00:40:53;;;;;;;18.30;10.93;;;;;;;5.37;100.00;100744.47;5056964;28;20262;-73
2023/11/27 00:43:19;;;;;;;19.70;10.38;;;;;;;5.33;100.00;100735.88;5056983;28;20037;-73
2023/11/27 00:45:45;;;;;;;15.07;10.52;;;;;;;5.33;100.00;100733.28;5056680;28;20059;-73
2023/11/27 00:48:10;;;;;;;11.57;9.38;;;;;;;5.39;100.00;100724.50;5056786;28;20088;-73
2023/11/27 00:50:35;;;;;;;17.15;10.35;;;;;;;5.41;100.00;100722.72;5056643;28;20017;-73
2023/11/27 00:53:01;;;;;;;13.85;9.45;;;;;;;5.36;100.00;100714.19;5056659;28;20040;-73
2023/11/27 00:55:26;;;;;;;17.35;10.45;;;;;;;5.35;100.00;100712.47;5054567;28;20032;-73
2023/11/27 00:57:51;;;;;;;18.77;10.15;;;;;;;5.35;100.00;100704.69;5056217;28;20064;-73
2023/11/27 01:00:17;;;;;;;16.40;10.43;;;;;;;5.36;100.00;100702.03;5056499;28;20037;-73
2023/11/27 01:02:44;;;;;;;14.45;9.35;;;;;;;5.38;100.00;100694.22;5056161;28;20045;-73
2023/11/27 01:05:09;;;;;;;14.50;9.15;;;;;;;5.41;100.00;100690.72;5057215;28;20048;-73
2023/11/27 01:07:35;;;;;;;18.80;10.38;;;;;;;5.37;100.00;100688.19;5056547;28;20032;-73
2023/11/27 01:10:00;;;;;;;13.38;10.32;;;;;;;5.36;100.00;100676.06;5056481;28;20048;-73
2023/11/27 01:12:26;;;;;;;15.23;9.65;;;;;;;5.38;100.00;100673.44;5056716;28;20197;-73
2023/11/27 01:14:51;;;;;;;12.15;9.82;;;;;;;5.39;100.00;100675.16;5056383;28;20033;-73
2023/11/27 01:17:16;;;;;;;11.95;8.82;;;;;;;5.37;100.00;100670.00;5054681;28;20036;-73
2023/11/27 01:19:42;;;;;;;17.95;10.82;;;;;;;5.32;100.00;100661.44;5017944;28;20033;-73
2023/11/27 01:22:08;;;;;;;17.10;9.30;;;;;;;5.32;100.00;100660.59;5036269;28;20041;-73
2023/11/27 01:24:33;;;;;;;16.88;9.15;;;;;;;5.34;100.00;100657.06;5035815;28;20370;-73
2023/11/27 01:26:58;;;;;;;14.18;9.25;;;;;;;5.32;100.00;100645.88;5035722;28;20041;-73
2023/11/27 01:29:24;;;;;;;10.38;9.15;;;;;;;5.33;100.00;100642.41;5036293;28;20325;-73
2023/11/27 01:31:49;;;;;;;12.85;8.98;;;;;;;5.33;100.00;100638.91;5035532;28;20367;-73
2023/11/27 01:34:16;;;;;;;13.27;9.43;;;;;;;5.30;100.00;100637.25;5036327;28;20041;-73
2023/11/27 01:36:43;;;;;;;10.68;9.30;;;;;;;5.37;100.00;100627.59;5035695;28;20041;-73
2023/11/27 01:39:09;;;;;;;10.20;8.10;;;;;;;5.37;100.00;100625.00;5036429;28;20041;-73
2023/11/27 01:41:34;;;;;;;13.88;8.90;;;;;;;5.34;100.00;100618.13;5035247;28;20129;-73
2023/11/27 01:44:00;;;;;;;9.55;8.48;;;;;;;5.35;100.00;100613.81;5035883;28;20032;-73
2023/11/27 01:46:29;;;;;;;13.63;9.05;;;;;;;5.32;100.00;100604.31;5036091;28;20096;-73
2023/11/27 01:48:56;;;;;;;13.27;8.18;;;;;;;5.37;100.00;100601.63;5035787;28;20017;-73
2023/11/27 01:51:24;;;;;;;8.90;7.80;;;;;;;5.38;100.00;100595.53;5018033;28;20041;-73
2023/11/27 01:53:52;;;;;;;14.00;8.25;;;;;;;5.28;100.00;100591.47;5035252;28;20065;-73
2023/11/27 01:56:20;;;;;;;10.32;7.82;;;;;;;5.29;100.00;100577.56;5035604;28;20052;-73
2023/11/27 01:58:47;;;;;;;15.57;9.35;;;;;;;5.31;100.00;100573.19;5034995;28;20347;-73
2023/11/27 02:01:12;;;;;;;10.00;7.57;;;;;;;5.31;100.00;100571.47;5035167;28;20221;-73
2023/11/27 02:03:37;;;;;;;9.88;7.65;;;;;;;5.31;100.00;100568.00;5035195;28;20079;-73
2023/11/27 02:06:03;;;;;;;10.68;8.23;;;;;;;5.32;100.00;100549.78;5035432;28;20056;-73
2023/11/27 02:08:28;;;;;;;11.60;7.25;;;;;;;5.32;100.00;100551.53;5035041;28;20320;-73
2023/11/27 02:10:54;;;;;;;7.80;7.05;;;;;;;5.30;100.00;100537.75;5034861;28;20352;-73
2023/11/27 02:13:21;;;;;;;8.05;7.30;;;;;;;5.30;100.00;100536.00;5035440;28;20041;-73
2023/11/27 02:15:47;;;;;;;11.82;6.82;;;;;;;5.28;100.00;100532.56;5034952;28;20144;-73
2023/11/27 02:18:12;;;;;;;10.55;6.95;;;;;;;5.25;100.00;100531.78;5027978;28;20272;-73
2023/11/27 02:20:37;;;;;;;8.48;6.55;;;;;;;5.19;100.00;100528.44;5016441;28;20064;-73
2023/11/27 02:23:07;;;;;;;10.43;7.10;;;;;;;5.19;100.00;100520.66;5019803;28;20022;-73
2023/11/27 02:25:32;;;;;;;6.90;6.30;;;;;;;5.21;100.00;100520.63;5018769;28;20045;-73
2023/11/27 02:27:57;;;;;;;9.77;7.10;;;;;;;5.22;100.00;100513.69;5024972;28;20111;-73
2023/11/27 02:30:23;;;;;;;6.78;6.18;;;;;;;5.15;100.00;100502.63;5038222;28;20039;-73
2023/11/27 02:32:48;;;;;;;7.20;6.40;;;;;;;5.20;100.00;100500.75;5024145;28;20101;-73
2023/11/27 02:35:14;;;;;;;7.03;6.32;;;;;;;5.17;100.00;100493.88;5015506;28;20257;-73
2023/11/27 02:37:39;;;;;;;6.75;6.25;;;;;;;5.21;100.00;100499.00;5015403;28;20241;-73
2023/11/27 02:40:05;;;;;;;10.75;6.57;;;;;;;5.18;100.00;100482.63;5032935;28;20041;-73
2023/11/27 02:42:31;;;;;;;10.57;7.07;;;;;;;5.15;100.00;100474.06;5029532;28;20045;-73
2023/11/27 02:44:56;;;;;;;8.10;6.53;;;;;;;5.17;100.00;100478.31;5015720;28;20040;-73
2023/11/27 02:47:22;;;;;;;7.05;6.28;;;;;;;5.18;100.00;100473.97;5015492;28;20038;-73
2023/11/27 02:49:48;;;;;;;6.57;5.88;;;;;;;5.12;100.00;100464.59;4998035;28;20354;-73
2023/11/27 02:52:14;;;;;;;6.95;6.10;;;;;;;5.16;100.00;100455.81;5015175;28;20063;-73
2023/11/27 02:54:39;;;;;;;6.78;6.07;;;;;;;5.15;100.00;100448.94;5015244;28;20341;-73
2023/11/27 02:57:05;;;;;;;10.02;6.65;;;;;;;5.15;100.00;100443.75;5026787;28;20396;-74
2023/11/27 02:59:30;;;;;;;7.30;6.25;;;;;;;5.15;100.00;100442.91;5014677;28;20046;-73
2023/11/27 03:01:55;;;;;;;8.57;6.28;;;;;;;5.16;100.00;100440.25;5021164;28;20096;-73
2023/11/27 03:04:21;;;;;;;6.70;6.05;;;;;;;5.17;100.00;100433.34;5035069;28;20350;-73
2023/11/27 03:06:46;;;;;;;7.32;6.28;;;;;;;5.15;100.00;100440.31;5027251;28;20401;-73
2023/11/27 03:09:15;;;;;;;11.20;7.28;;;;;;;5.11;100.00;100433.47;5014868;28;20341;-73
2023/11/27 03:11:41;;;;;;;8.05;7.32;;;;;;;5.10;100.00;100426.59;5020107;28;20056;-73
2023/11/27 03:14:06;;;;;;;7.30;6.65;;;;;;;5.08;100.00;100418.00;5034703;28;20337;-73
2023/11/27 03:16:31;;;;;;;7.72;6.97;;;;;;;5.06;100.00;100406.75;5034707;28;20037;-73
2023/11/27 03:18:57;;;;;;;9.95;7.80;;;;;;;5.07;100.00;100404.13;5034165;28;20076;-73
2023/11/27 03:21:22;;;;;;;8.70;7.82;;;;;;;5.08;100.00;100405.84;5034321;28;20030;-74
2023/11/27 03:23:48;;;;;;;11.70;7.63;;;;;;;5.07;100.00;100400.69;5034039;28;20078;-73
2023/11/27 03:26:14;;;;;;;8.75;7.95;;;;;;;5.09;100.00;100394.56;5034209;28;20052;-74
2023/11/27 03:28:39;;;;;;;7.90;7.15;;;;;;;5.11;100.00;100382.44;5034045;28;20041;-74
2023/11/27 03:31:05;;;;;;;9.05;8.13;;;;;;;5.12;100.00;100384.13;5034711;28;20044;-73
2023/11/27 03:33:30;;;;;;;8.73;7.90;;;;;;;5.14;100.00;100384.06;5034012;28;20045;-74
2023/11/27 03:35:56;;;;;;;9.25;8.43;;;;;;;5.16;100.00;100377.09;5034140;28;20324;-74
2023/11/27 03:38:21;;;;;;;9.93;8.90;;;;;;;5.14;100.00;100371.94;5034145;28;20041;-74
2023/11/27 03:40:47;;;;;;;9.27;8.48;;;;;;;5.16;100.00;100369.31;5020035;28;20030;-74
2023/11/27 03:43:12;;;;;;;10.75;9.75;;;;;;;5.17;100.00;100358.06;5038391;28;20491;-74
2023/11/27 03:45:37;;;;;;;9.95;8.90;;;;;;;5.19;100.00;100345.88;5037792;28;20122;-74
2023/11/27 03:48:06;;;;;;;10.05;9.05;;;;;;;5.14;100.00;100353.78;5037795;28;20045;-74
2023/11/27 03:50:33;;;;;;;9.85;8.85;;;;;;;5.15;100.00;100346.84;5037421;28;20255;-74
2023/11/27 03:52:58;;;;;;;9.40;8.55;;;;;;;5.14;100.00;100343.38;5039237;28;20029;-73
2023/11/27 03:55:24;;;;;;;9.85;8.82;;;;;;;5.11;100.00;100334.81;5041114;28;20043;-73
2023/11/27 03:57:50;;;;;;;14.98;9.48;;;;;;;5.07;100.00;100338.41;5040846;28;20065;-73
2023/11/27 04:00:16;;;;;;;9.50;8.50;;;;;;;5.05;100.00;100330.66;5038824;28;20033;-74
2023/11/27 04:02:43;;;;;;;9.00;8.23;;;;;;;5.03;100.00;100326.41;5037535;28;20383;-74
2023/11/27 04:05:09;;;;;;;9.60;8.27;;;;;;;5.06;100.00;100314.19;5037711;28;20053;-74
2023/11/27 04:07:34;;;;;;;9.57;8.65;;;;;;;5.08;100.00;100303.78;5038066;28;20095;-74
2023/11/27 04:10:00;;;;;;;7.93;7.22;;;;;;;5.08;100.00;100303.78;5037325;28;20045;-74
2023/11/27 04:12:25;;;;;;;7.82;7.20;;;;;;;5.07;100.00;100297.72;5019942;28;20336;-74
2023/11/27 04:14:51;;;;;;;7.20;6.50;;;;;;;5.12;100.00;100300.19;5037083;28;20358;-74
2023/11/27 04:17:16;;;;;;;7.40;6.80;;;;;;;5.10;100.00;100295.03;5037468;28;20044;-74
2023/11/27 04:19:42;;;;;;;7.50;6.88;;;;;;;5.10;100.00;100284.66;5037160;28;20041;-74
2023/11/27 04:22:08;;;;;;;8.40;7.70;;;;;;;5.09;100.00;100285.53;5037263;28;20111;-74
2023/11/27 04:24:33;;;;;;;7.63;7.00;;;;;;;5.08;100.00;100276.06;5036924;28;20100;-74
2023/11/27 04:26:58;;;;;;;7.47;6.97;;;;;;;5.11;100.00;100276.00;5037238;28;20044;-74
2023/11/27 04:29:24;;;;;;;7.97;7.28;;;;;;;5.11;100.00;100262.16;5037306;28;20092;-75
2023/11/27 04:31:49;;;;;;;7.32;6.72;;;;;;;5.13;100.00;100260.34;5037341;28;20060;-74
2023/11/27 04:34:15;;;;;;;8.65;7.78;;;;;;;5.11;100.00;100252.63;5037583;28;20036;-74
2023/11/27 04:36:41;;;;;;;8.98;7.60;;;;;;;5.14;100.00;100252.53;5037282;28;20364;-74
2023/11/27 04:39:10;;;;;;;7.82;7.13;;;;;;;5.08;100.00;100244.94;5036907;28;20053;-74
2023/11/27 04:41:39;;;;;;;6.85;6.35;;;;;;;5.05;100.00;100238.97;5036824;28;20071;-74
2023/11/27 04:44:06;;;;;;;6.97;6.45;;;;;;;5.08;100.00;100234.53;5036466;28;20099;-74
2023/11/27 04:46:32;;;;;;;6.60;6.10;;;;;;;5.06;100.00;100225.94;5036933;28;20251;-74
2023/11/27 04:48:57;;;;;;;5.60;5.10;;;;;;;5.08;100.00;100218.97;5036923;28;20025;-74
2023/11/27 04:51:22;;;;;;;6.75;6.25;;;;;;;5.07;100.00;100209.47;5036518;28;20060;-74
2023/11/27 04:53:48;;;;;;;6.30;5.80;;;;;;;5.03;100.00;100207.88;5036523;28;20402;-74
2023/11/27 04:56:13;;;;;;;6.03;5.63;;;;;;;5.02;100.00;100205.31;5036272;28;20323;-74
2023/11/27 04:58:38;;;;;;;6.95;6.35;;;;;;;4.97;100.00;100190.72;5036609;28;20348;-74
2023/11/27 05:01:04;;;;;;;7.07;6.50;;;;;;;4.97;100.00;100193.31;5036528;28;20387;-74
2023/11/27 05:03:30;;;;;;;7.03;6.50;;;;;;;4.98;100.00;100184.66;5036608;28;20037;-74
2023/11/27 05:05:58;;;;;;;5.82;5.43;;;;;;;5.02;100.00;100193.19;5036535;28;20103;-74
2023/11/27 05:08:25;;;;;;;6.70;5.95;;;;;;;5.02;100.00;100184.53;5036982;28;20037;-74
2023/11/27 05:10:51;;;;;;;6.82;6.32;;;;;;;5.03;100.00;100171.53;5035786;28;20043;-74
2023/11/27 05:13:16;;;;;;;6.20;5.70;;;;;;;5.06;100.00;100170.56;5036620;28;20104;-74
2023/11/27 05:15:42;;;;;;;6.47;5.95;;;;;;;5.03;100.00;100161.16;5018265;28;20105;-74
2023/11/27 05:18:07;;;;;;;7.38;6.70;;;;;;;5.00;100.00;100159.50;5036026;28;20053;-74
2023/11/27 05:20:33;;;;;;;6.47;6.07;;;;;;;5.00;100.00;100158.63;5036489;28;20092;-74
2023/11/27 05:23:01;;;;;;;6.75;6.07;;;;;;;4.98;100.00;100150.91;5035872;28;20041;-74
2023/11/27 05:25:27;;;;;;;6.60;5.97;;;;;;;4.99;100.00;100150.00;5035933;28;20079;-74
2023/11/27 05:27:53;;;;;;;6.68;6.18;;;;;;;4.99;100.00;100141.38;5035680;28;20033;-74
2023/11/27 05:30:19;;;;;;;5.50;5.10;;;;;;;5.03;100.00;100140.38;5035958;28;20032;-74
2023/11/27 05:32:44;;;;;;;5.53;5.13;;;;;;;5.05;100.00;100136.00;5036203;28;20053;-75
2023/11/27 05:35:10;;;;;;;5.40;5.10;;;;;;;5.03;100.00;100132.59;5035730;28;20041;-75
2023/11/27 05:37:36;;;;;;;6.55;5.95;;;;;;;5.01;100.00;100129.19;5036317;28;20037;-75
2023/11/27 05:40:01;;;;;;;5.97;5.47;;;;;;;5.01;100.00;100124.00;5036037;28;20041;-75
2023/11/27 05:42:27;;;;;;;6.15;5.65;;;;;;;4.99;100.00;100111.06;5035827;28;20036;-74
2023/11/27 05:44:59;;;;;;;5.55;5.15;;;;;;;4.99;100.00;100118.88;5036124;28;20041;-74
2023/11/27 05:47:24;;;;;;;5.82;5.30;;;;;;;4.99;100.00;100110.22;5036378;28;20101;-74
2023/11/27 05:49:52;;;;;;;5.60;5.10;;;;;;;5.00;100.00;100107.59;5035366;28;20305;-74
2023/11/27 05:52:17;;;;;;;6.25;5.75;;;;;;;4.99;100.00;100098.09;5035982;28;20048;-74
2023/11/27 05:54:43;;;;;;;6.25;5.75;;;;;;;4.98;100.00;100100.72;5035635;28;20045;-74
2023/11/27 05:57:08;;;;;;;5.90;5.35;;;;;;;5.00;100.00;100094.63;5035621;28;20079;-75
2023/11/27 05:59:33;;;;;;;5.40;5.05;;;;;;;5.03;100.00;100091.06;5035772;28;20030;-75
2023/11/27 06:01:59;;;;;;;6.38;5.85;;;;;;;5.03;100.00;100091.06;5035141;28;20093;-75
2023/11/27 06:04:24;;;;;;;5.72;5.32;;;;;;;5.06;100.00;100082.34;5035383;28;20033;-75
2023/11/27 06:06:49;;;;;;;6.35;5.85;;;;;;;5.08;100.00;100065.84;5017542;28;20360;-75
2023/11/27 06:09:15;;;;;;;6.68;6.18;;;;;;;5.05;100.00;100062.47;5035609;28;20033;-75
2023/11/27 06:11:41;;;;;;;7.22;6.63;;;;;;;4.92;100.00;100057.66;5035323;28;20096;-75
2023/11/27 06:14:07;;;;;;;6.00;5.60;;;;;;;4.94;100.00;100063.66;5034926;28;20225;-75
2023/11/27 06:16:32;;;;;;;6.03;5.53;;;;;;;4.96;100.00;100058.41;5035082;28;20037;-74
2023/11/27 06:18:58;;;;;;;7.03;6.43;;;;;;;4.94;100.00;100050.66;5034977;28;20108;-75
2023/11/27 06:21:23;;;;;;;6.97;6.47;;;;;;;4.99;100.00;100043.59;5035563;28;20209;-73
2023/11/27 06:23:51;;;;;;;7.72;7.03;;;;;;;5.06;100.00;100030.44;5034440;28;20299;-73
2023/11/27 06:26:17;;;;;;;7.10;6.60;;;;;;;5.09;100.00;100026.00;5035267;28;20029;-74
2023/11/27 06:28:42;;;;;;;6.53;5.93;;;;;;;5.15;100.00;100018.03;5034559;28;20055;-75
2023/11/27 06:31:07;;;;;;;6.78;6.28;;;;;;;5.19;100.00;100014.44;5035372;28;20129;-75
2023/11/27 06:33:33;;;;;;;7.10;6.50;;;;;;;5.23;100.00;99998.78;5035103;28;20332;-75
2023/11/27 06:35:58;;;;;;;7.30;6.72;;;;;;;5.23;100.00;100001.38;5034871;28;20029;-76
2023/11/27 06:38:24;;;;;;;7.07;6.57;;;;;;;5.22;100.00;99994.47;5033757;28;20447;-75
2023/11/27 06:40:49;;;;;;;7.45;6.85;;;;;;;5.23;100.00;99988.38;5034179;28;20033;-72
2023/11/27 06:43:15;;;;;;;7.40;6.90;;;;;;;5.23;100.00;99984.03;5034917;28;20095;-73
2023/11/27 06:45:41;;;;;;;6.95;6.45;;;;;;;5.24;100.00;99982.28;5033837;28;20033;-74
2023/11/27 06:48:06;;;;;;;9.25;7.38;;;;;;;5.21;100.00;99970.25;5024222;28;20033;-74
2023/11/27 06:50:31;;;;;;;8.07;6.60;;;;;;;5.24;100.00;99975.38;5034610;28;20048;-74
2023/11/27 06:52:57;;;;;;;7.00;6.35;;;;;;;5.27;100.00;99970.06;5034456;28;20044;-73
2023/11/27 06:55:22;;;;;;;6.90;6.30;;;;;;;5.27;100.00;99966.63;5034367;28;20256;-73
2023/11/27 06:57:49;;;;;;;6.38;5.97;;;;;;;5.25;100.00;99960.63;5033723;28;20429;-75
2023/11/27 07:00:15;;;;;;;7.13;6.53;;;;;;;5.20;100.00;99958.16;5034139;28;20037;-75
2023/11/27 07:02:40;;;;;;;6.53;6.03;;;;;;;5.18;100.00;99953.06;5033523;28;20065;-75
2023/11/27 07:05:06;;;;;;;6.82;6.32;;;;;;;5.17;100.00;99950.50;5033772;28;20044;-75
2023/11/27 07:07:31;;;;;;;7.43;6.75;;;;;;;5.15;100.00;99945.34;5033759;28;20109;-75
2023/11/27 07:09:57;;;;;;;7.30;6.75;;;;;;;5.16;100.00;99949.63;5034121;28;20273;-75
2023/11/27 07:12:23;;;;;;;7.88;7.07;;;;;;;5.14;100.00;99948.00;5016017;28;20044;-75
2023/11/27 07:14:49;;;;;;;10.35;7.63;;;;;;;5.11;100.00;99940.28;5033231;28;20097;-75
2023/11/27 07:17:15;;;;;;;7.28;6.75;;;;;;;5.10;100.00;99928.25;5033812;28;20041;-75
2023/11/27 07:19:40;;;;;;;7.15;6.55;;;;;;;5.10;100.00;99923.03;5034379;28;20329;-75
2023/11/27 07:22:06;;;;;;;7.50;6.90;;;;;;;5.10;100.00;99916.09;5034787;28;20040;-75
2023/11/27 07:24:31;;;;;;;8.38;7.60;;;;;;;5.11;100.00;99917.81;5034423;28;20057;-75
2023/11/27 07:26:57;;;;;;;8.45;7.72;;;;;;;5.10;100.00;99915.25;5034654;28;20262;-75
2023/11/27 07:29:22;;;;;;;7.53;6.93;;;;;;;5.11;100.00;99903.97;5034642;28;20252;-75
2023/11/27 07:31:47;;;;;;;8.85;8.05;;;;;;;5.10;100.00;99910.91;5033425;28;20037;-75
2023/11/27 07:34:14;;;;;;;8.40;7.80;;;;;;;5.11;100.00;99891.84;5034274;28;20234;-75
2023/11/27 07:36:40;;;;;;;9.27;8.40;;;;;;;5.12;100.00;99895.28;5034271;28;20126;-75
2023/11/27 07:39:10;;;;;;;8.38;7.68;;;;;;;5.15;100.00;99892.59;5034468;28;20375;-75
2023/11/27 07:41:36;;;;;;;8.93;8.20;;;;;;;5.13;100.00;99894.38;5033537;28;20221;-75
2023/11/27 07:44:02;;;;;;;8.60;7.85;;;;;;;5.16;100.00;99884.75;5033150;28;20041;-75
2023/11/27 07:46:28;;;;;;;8.32;7.65;;;;;;;5.19;100.00;99881.22;5032962;28;20229;-75
2023/11/27 07:48:53;;;;;;;8.60;7.93;;;;;;;5.21;100.00;99879.41;5033152;28;20428;-75
2023/11/27 07:51:19;;;;;;;8.70;8.00;;;;;;;5.19;100.00;99876.00;5033456;28;20068;-77
2023/11/27 07:53:47;;;;;;;9.05;8.25;;;;;;;5.19;100.00;99870.81;5032912;28;20037;-77
2023/11/27 07:56:13;;;;;;;9.20;8.40;;;;;;;5.23;100.00;99868.97;5032982;28;20041;-75
2023/11/27 07:58:40;;;;;;;9.80;8.77;;;;;;;5.21;100.00;99863.00;5033850;28;20033;-75
2023/11/27 08:01:07;;;;;;;9.15;8.35;;;;;;;5.20;100.00;99859.53;5034333;28;20158;-75
2023/11/27 08:03:32;;;;;;;8.77;8.07;;;;;;;5.21;100.00;99860.41;5033939;28;20041;-75
2023/11/27 08:05:59;;;;;;;8.25;7.55;;;;;;;5.22;100.00;99849.97;5034059;28;20092;-75
2023/11/27 08:08:25;;;;;;;9.48;8.52;;;;;;;5.22;100.00;99855.16;5034329;28;20261;-75
2023/11/27 08:10:50;;;;;;;8.93;8.07;;;;;;;5.22;100.00;99842.19;5033200;28;20107;-74
2023/11/27 08:13:16;;;;;;;8.85;8.05;;;;;;;5.26;100.00;99842.91;5033525;28;20029;-75
2023/11/27 08:15:42;;;;;;;9.63;8.77;;;;;;;5.24;100.00;99845.56;5015428;28;20041;-75
2023/11/27 08:18:08;;;;;;;8.85;8.05;;;;;;;5.26;100.00;99838.56;5033430;28;20060;-75
2023/11/27 08:20:35;;;;;;;9.05;8.20;;;;;;;5.25;100.00;99838.63;5033213;28;20257;-75
2023/11/27 08:23:02;;;;;;;8.85;8.13;;;;;;;5.30;100.00;99829.75;5033412;28;20041;-75
2023/11/27 08:25:28;;;;;;;10.13;9.02;;;;;;;5.29;100.00;99830.66;5033478;28;20041;-75
2023/11/27 08:27:55;;;;;;;8.40;7.60;;;;;;;5.32;100.00;99825.34;5034372;28;20022;-75
2023/11/27 08:30:22;;;;;;;7.82;7.13;;;;;;;5.34;100.00;99814.91;5034409;28;20029;-75
2023/11/27 08:32:48;;;;;;;8.90;8.00;;;;;;;5.35;100.00;99817.47;5034195;28;20057;-75
2023/11/27 08:35:13;;;;;;;8.65;7.85;;;;;;;5.37;100.00;99807.88;5042210;28;20044;-74
2023/11/27 08:37:39;;;;;;;7.63;6.95;;;;;;;5.41;100.00;99800.81;5036228;28;20025;-74
2023/11/27 08:40:07;;;;;;;7.47;6.88;;;;;;;5.42;100.00;99796.47;5045573;28;20039;-75
2023/11/27 08:42:36;;;;;;;8.80;7.57;;;;;;;5.44;100.00;99795.53;5036581;28;20037;-75
2023/11/27 08:45:10;;;;;;;8.15;7.45;;;;;;;5.45;100.00;99788.56;5037991;28;20036;-75
2023/11/27 08:47:39;;;;;;;7.03;6.53;;;;;;;5.47;100.00;99787.59;5021306;28;20349;-73
2023/11/27 08:50:07;;;;;;;7.60;7.00;;;;;;;5.53;100.00;99786.53;5036766;28;20071;-73
2023/11/27 08:52:32;;;;;;;7.25;6.65;;;;;;;5.57;100.00;99781.19;5044837;28;20193;-73
2023/11/27 08:54:58;;;;;;;7.93;7.25;;;;;;;5.61;100.00;99766.34;5042460;28;20076;-75
2023/11/27 08:57:23;;;;;;;6.95;6.40;;;;;;;5.61;100.00;99763.72;5046038;28;20198;-75
2023/11/27 08:59:49;;;;;;;10.18;6.47;;;;;;;5.62;100.00;99762.84;5049756;28;20175;-75
2023/11/27 09:02:16;;;;;;;6.22;5.72;;;;;;;5.62;100.00;99754.19;5055918;28;20025;-75
2023/11/27 09:04:41;;;;;;;5.65;5.25;;;;;;;5.64;100.00;99749.78;5055891;28;20029;-75
2023/11/27 09:07:07;;;;;;;5.82;5.43;;;;;;;5.63;100.00;99751.53;5056098;28;20554;-75
2023/11/27 09:09:33;;;;;;;7.25;6.00;;;;;;;5.65;100.00;99749.72;5045638;28;20029;-75
2023/11/27 09:11:59;;;;;;;6.05;5.55;;;;;;;5.67;100.00;99734.06;5045383;28;20048;-75
2023/11/27 09:14:24;;;;;;;5.70;5.20;;;;;;;5.68;100.00;99728.84;5052417;28;20198;-75
2023/11/27 09:16:49;;;;;;;6.65;6.05;;;;;;;5.68;100.00;99725.41;5034818;28;20041;-75
2023/11/27 09:19:15;;;;;;;6.28;5.47;;;;;;;5.70;100.00;99723.59;5069401;28;20247;-75
2023/11/27 09:21:40;;;;;;;5.28;4.82;;;;;;;5.71;100.00;99715.72;5075098;28;20339;-75
2023/11/27 09:24:06;;;;;;;5.82;5.32;;;;;;;5.73;100.00;99713.06;5074949;28;20355;-75
2023/11/27 09:26:32;;;;;;;5.43;5.03;;;;;;;5.74;100.00;99713.00;5075512;28;20114;-75
2023/11/27 09:28:57;;;;;;;5.10;4.70;;;;;;;5.75;100.00;99701.72;5075913;28;20097;-75
2023/11/27 09:31:23;;;;;;;5.57;5.18;;;;;;;5.74;100.00;99699.16;5076380;28;20067;-74
2023/11/27 09:33:48;;;;;;;6.40;5.90;;;;;;;5.74;100.00;99702.59;5076368;28;20088;-75
2023/11/27 09:36:15;;;;;;;6.13;5.68;;;;;;;5.76;100.00;99698.19;5076267;28;20036;-75
2023/11/27 09:38:41;;;;;;;5.18;4.85;;;;;;;5.79;100.00;99696.41;5075677;28;20067;-75
2023/11/27 09:41:07;;;;;;;5.97;5.47;;;;;;;5.80;100.00;99690.28;5075696;28;20347;-75
2023/11/27 09:43:37;;;;;;;5.38;4.95;;;;;;;5.82;100.00;99697.13;5075688;28;20033;-75
2023/11/27 09:46:09;;;;;;;6.55;5.95;;;;;;;5.83;100.00;99696.22;5076128;28;20324;-75
2023/11/27 09:48:40;;;;;;;6.50;5.90;;;;;;;5.84;100.00;99691.84;5075625;28;20028;-75
2023/11/27 09:51:12;;;;;;;5.80;5.40;;;;;;;5.84;100.00;99692.72;5075885;28;20036;-75
2023/11/27 09:53:43;;;;;;;7.38;5.93;;;;;;;5.84;100.00;99692.72;5075619;28;20099;-75
2023/11/27 09:56:10;;;;;;;6.80;6.20;;;;;;;5.86;100.00;99690.06;5075721;28;20328;-75
2023/11/27 09:58:42;;;;;;;6.05;5.55;;;;;;;5.89;100.00;99688.16;5075158;28;20103;-74
2023/11/27 10:01:10;;;;;;;5.45;5.05;;;;;;;5.94;100.00;99688.00;5075600;28;20099;-75
2023/11/27 10:03:42;;;;;;;6.78;6.18;;;;;;;5.91;100.00;99686.38;5075480;28;20036;-75
2023/11/27 10:06:09;;;;;;;7.28;5.63;;;;;;;5.93;100.00;99686.28;5075249;28;20095;-75
2023/11/27 10:08:35;;;;;;;6.72;6.22;;;;;;;5.94;100.00;99672.41;5075158;28;20073;-75
2023/11/27 10:11:01;;;;;;;7.35;6.65;;;;;;;5.96;100.00;99670.59;5075368;28;20047;-75
2023/11/27 10:13:34;;;;;;;6.55;6.00;;;;;;;6.00;100.00;99674.78;5075063;28;20197;-75
2023/11/27 10:16:02;;;;;;;5.63;5.22;;;;;;;6.02;100.00;99662.59;5075668;28;20067;-75
2023/11/27 10:18:28;;;;;;;6.05;5.65;;;;;;;6.04;100.00;99657.28;5064377;28;20217;-75
2023/11/27 10:20:54;;;;;;;6.35;5.85;;;;;;;6.06;100.00;99658.94;5055274;28;20041;-75
2023/11/27 10:23:20;;;;;;;5.78;5.38;;;;;;;6.07;100.00;99641.59;5055563;28;20047;-75
2023/11/27 10:25:54;;;;;;;5.70;5.30;;;;;;;6.09;100.00;99634.56;5054926;28;20112;-75
2023/11/27 10:28:21;;;;;;;6.35;5.78;;;;;;;6.10;100.00;99633.66;5055170;28;20060;-76
2023/11/27 10:30:49;;;;;;;6.90;6.35;;;;;;;6.10;100.00;99623.28;5054866;28;20025;-75
2023/11/27 10:33:15;;;;;;;6.72;6.22;;;;;;;6.12;100.00;99626.66;5055193;28;20339;-75
2023/11/27 10:35:41;;;;;;;6.82;6.22;;;;;;;6.12;100.00;99618.84;5055003;28;20375;-75
2023/11/27 10:38:15;;;;;;;7.22;6.50;;;;;;;6.14;100.00;99615.28;5054983;28;20037;-75
2023/11/27 10:40:41;;;;;;;6.85;6.35;;;;;;;6.16;100.00;99612.59;5055058;28;20043;-75
2023/11/27 10:43:10;;;;;;;6.60;6.10;;;;;;;6.16;100.00;99610.00;5054684;28;20241;-75
2023/11/27 10:45:38;;;;;;;6.88;6.38;;;;;;;6.17;100.00;99603.91;5054632;28;20461;-75
2023/11/27 10:48:06;;;;;;;6.65;6.15;;;;;;;6.19;100.00;99596.88;5054811;28;20036;-75
2023/11/27 10:50:32;;;;;;;7.43;6.75;;;;;;;6.19;100.00;99594.28;5054320;28;20385;-75
2023/11/27 10:52:58;;;;;;;7.45;6.95;;;;;;;6.21;100.00;99587.28;5054729;28;20033;-75
2023/11/27 10:55:26;;;;;;;7.40;6.70;;;;;;;6.20;100.00;99587.31;5055027;28;20059;-75
2023/11/27 10:57:55;;;;;;;7.50;6.93;;;;;;;6.22;100.00;99582.91;5054095;28;20033;-75
2023/11/27 11:00:38;;;;;;;7.75;7.05;;;;;;;6.19;100.00;99578.69;5054801;28;20049;-75
2023/11/27 11:03:14;;;;;;;6.70;6.20;;;;;;;6.24;100.00;99576.75;5054673;28;20041;-75
2023/11/27 11:05:50;;;;;;;8.63;6.60;;;;;;;6.25;100.00;99577.59;5054867;28;20029;-75
2023/11/27 11:08:20;;;;;;;6.45;5.95;;;;;;;6.28;100.00;99575.69;5054880;28;20372;-75
2023/11/27 11:10:45;;;;;;;6.43;5.95;;;;;;;6.29;100.00;99567.00;5054013;28;20029;-75
2023/11/27 11:13:13;;;;;;;6.57;6.07;;;;;;;6.32;100.00;99559.03;5054301;28;20048;-75
2023/11/27 11:16:13;;;;;;;7.10;6.50;;;;;;;6.32;100.00;99546.03;5054384;28;20043;-75
2023/11/27 11:18:45;;;;;;;6.70;6.20;;;;;;;6.36;100.00;99546.75;5057587;28;20052;-75
2023/11/27 11:21:22;;;;;;;6.65;6.15;;;;;;;6.38;100.00;99531.91;5075087;28;20262;-75
2023/11/27 11:24:29;;;;;;;6.28;5.78;;;;;;;6.41;100.00;99529.19;5074845;28;20040;-75